Nefeli — 9HA4228 — position and weather

sailwx.info

Track history (hours):
 
Tides and Currents Weather Stations Pressure Air Temp Water Temp Dewpoint Dewpoint Depression Visibility Wind Speed Wind Dir Waves Ship Positions

Nefeli

Last reported at 2018-May-14 16:00 UTC. Time now 2018-May-24 21:43 UTC.
Position N 28°52' W 013°00'.
Warning: this ship's position is 10 days out of date.

Length 200 m; draft 7.3 m.

Type: Cargo ship. MMSI: 249390000.

Date/timePositionNaut miles runAvg speedWind from/ knotsBaromVisibWave heightAir tempDewpointWater temp
2018-May-14 16:00N 28°52' W 013°00'  
2018-May-11 09:35N 35°58' W 005°37'214.1
2018-May-11 09:27N 35°58' W 005°35'613.2
2018-May-11 09:00N 36°00' W 005°28'611.8
2018-May-11 08:30N 36°05' W 005°23'2 4.5
2018-May-11 07:58N 36°06' W 005°22'0 0.0
2018-May-11 07:28N 36°06' W 005°22'0 0.0
2018-May-11 06:58N 36°06' W 005°21'0 0.1
2018-May-11 06:25N 36°06' W 005°21'0 0.0
2018-May-11 05:52N 36°06' W 005°21'0 0.2
2018-May-11 05:16N 36°06' W 005°22'0 0.2
2018-May-11 04:58N 36°06' W 005°22'0 0.1
2018-May-11 04:28N 36°06' W 005°22'0 0.0
2018-May-11 03:58N 36°06' W 005°22'0 0.0
2018-May-11 03:28N 36°06' W 005°22'0 0.0
2018-May-11 02:58N 36°06' W 005°22'0 0.0
2018-May-11 02:28N 36°06' W 005°21'0 0.0
2018-May-11 01:58N 36°06' W 005°21'0 0.0
2018-May-11 01:28N 36°06' W 005°21'0 0.1
2018-May-11 00:58N 36°06' W 005°21'0 0.3
2018-May-11 00:28N 36°07' W 005°21'0 0.1
2018-May-10 23:58N 36°07' W 005°21'0 0.3
2018-May-10 23:30N 36°06' W 005°22'2 4.6
2018-May-10 23:00N 36°06' W 005°19'611.3
2018-May-10 22:30N 36°06' W 005°12'  
2018-May-08 07:05N 37°05' E 012°37'113.9
2018-May-08 07:00N 37°04' E 012°38'714.0
2018-May-08 06:30N 37°02' E 012°46'713.7
2018-May-08 06:00N 37°01' E 012°55'713.9
2018-May-08 05:30N 36°59' E 013°03'713.8
2018-May-08 05:00N 36°57' E 013°11'714.0
2018-May-08 04:30N 36°54' E 013°20'713.8
2018-May-08 04:00N 36°52' E 013°28'713.9
2018-May-08 03:30N 36°49' E 013°36'713.9
2018-May-08 02:59N 36°47' E 013°44'714.1
2018-May-08 02:30N 36°44' E 013°52'713.9
2018-May-08 02:00N 36°41' E 013°60'713.8
2018-May-08 01:30N 36°39' E 014°08'713.7
2018-May-08 01:00N 36°36' E 014°16'713.6
2018-May-08 00:30N 36°33' E 014°23'713.6
2018-May-08 00:00N 36°31' E 014°31'713.4
2018-May-07 23:30N 36°29' E 014°39'713.3
2018-May-07 23:00N 36°29' E 014°48'613.0
2018-May-07 22:31N 36°29' E 014°55'612.7
2018-May-07 22:00N 36°29' E 015°03'712.9
2018-May-07 21:26N 36°30' E 015°13'614.0
2018-May-07 20:59N 36°30' E 015°20'713.9
2018-May-07 20:30N 36°30' E 015°29'713.8
2018-May-07 20:00N 36°30' E 015°37'53611.7
2018-May-05 22:24N 40°01' E 026°05'  
Track history (hours):
 
Tides and Currents Weather Stations Pressure Air Temp Water Temp Dewpoint Dewpoint Depression Visibility Wind Speed Wind Dir Waves Ship Positions

Nefeli

Last reported at 2018-May-14 16:00 UTC. Time now 2018-May-24 21:43 UTC.
Position N 28°52' W 013°00'.
Warning: this ship's position is 10 days out of date.

Length 200 m; draft 7.3 m.

Type: Cargo ship. MMSI: 249390000.

Date/timePositionNaut miles runAvg speedWind from/ knotsBaromVisibWave heightAir tempDewpointWater temp
2018-May-14 16:00N 28°52' W 013°00'  
2018-May-11 09:35N 35°58' W 005°37'214.1
2018-May-11 09:27N 35°58' W 005°35'613.2
2018-May-11 09:00N 36°00' W 005°28'611.8
2018-May-11 08:30N 36°05' W 005°23'2 4.5
2018-May-11 07:58N 36°06' W 005°22'0 0.0
2018-May-11 07:28N 36°06' W 005°22'0 0.0
2018-May-11 06:58N 36°06' W 005°21'0 0.1
2018-May-11 06:25N 36°06' W 005°21'0 0.0
2018-May-11 05:52N 36°06' W 005°21'0 0.2
2018-May-11 05:16N 36°06' W 005°22'0 0.2
2018-May-11 04:58N 36°06' W 005°22'0 0.1
2018-May-11 04:28N 36°06' W 005°22'0 0.0
2018-May-11 03:58N 36°06' W 005°22'0 0.0
2018-May-11 03:28N 36°06' W 005°22'0 0.0
2018-May-11 02:58N 36°06' W 005°22'0 0.0
2018-May-11 02:28N 36°06' W 005°21'0 0.0
2018-May-11 01:58N 36°06' W 005°21'0 0.0
2018-May-11 01:28N 36°06' W 005°21'0 0.1
2018-May-11 00:58N 36°06' W 005°21'0 0.3
2018-May-11 00:28N 36°07' W 005°21'0 0.1
2018-May-10 23:58N 36°07' W 005°21'0 0.3
2018-May-10 23:30N 36°06' W 005°22'2 4.6
2018-May-10 23:00N 36°06' W 005°19'611.3
2018-May-10 22:30N 36°06' W 005°12'  
2018-May-08 07:05N 37°05' E 012°37'113.9
2018-May-08 07:00N 37°04' E 012°38'714.0
2018-May-08 06:30N 37°02' E 012°46'713.7
2018-May-08 06:00N 37°01' E 012°55'713.9
2018-May-08 05:30N 36°59' E 013°03'713.8
2018-May-08 05:00N 36°57' E 013°11'714.0
2018-May-08 04:30N 36°54' E 013°20'713.8
2018-May-08 04:00N 36°52' E 013°28'713.9
2018-May-08 03:30N 36°49' E 013°36'713.9
2018-May-08 02:59N 36°47' E 013°44'714.1
2018-May-08 02:30N 36°44' E 013°52'713.9
2018-May-08 02:00N 36°41' E 013°60'713.8
2018-May-08 01:30N 36°39' E 014°08'713.7
2018-May-08 01:00N 36°36' E 014°16'713.6
2018-May-08 00:30N 36°33' E 014°23'713.6
2018-May-08 00:00N 36°31' E 014°31'713.4
2018-May-07 23:30N 36°29' E 014°39'713.3
2018-May-07 23:00N 36°29' E 014°48'613.0
2018-May-07 22:31N 36°29' E 014°55'612.7
2018-May-07 22:00N 36°29' E 015°03'712.9
2018-May-07 21:26N 36°30' E 015°13'614.0
2018-May-07 20:59N 36°30' E 015°20'713.9
2018-May-07 20:30N 36°30' E 015°29'713.8
2018-May-07 20:00N 36°30' E 015°37'53611.7
2018-May-05 22:24N 40°01' E 026°05'  

Dump ship's entire track history